Lähistön asemien METAR-raportit

 

EFJY - Jyvaskyla (mil/C, Finland
Etäisyys Sääasemalta: E 40km
Päivitetty: 04/07/2020 16:50
Rain showers, Ukkospilviä
Rain showers, Ukkospilviä
 Tuulen suunta E
Tuuli: E 7 km/h
Lämpötila: 13°C
Kastepiste: 12°C
Ilmankosteus: 94%
Ilmanpaine: 1001 hPa
Yhteenveto: Rain Showers
Pilvisyys: Ukkospilviä
Näkyvyys: 10 km
Pilvisyystiedot: Pilvistä 305 m
2020/07/04 16:50 EFJY 041650Z AUTO 19004KT 130V250 9999 SHRA OVC010 //////CB 13/12 Q1001
EFKU - Kuopio (mil/Civ), Finland
Etäisyys Sääasemalta: IKo 106km
Päivitetty: 04/07/2020 16:50
Heikkoa sadetta, Pilvistä
Heikkoa sadetta, Pilvistä
 Tuulen suunta EKa
Tuuli: EKa 17 km/h
Lämpötila: 13°C
Kastepiste: 11°C
Ilmankosteus: 88%
Ilmanpaine: 1002 hPa
Yhteenveto: Light Rain
Pilvisyys: Pilvistä
Näkyvyys: 10 km
Pilvisyystiedot: Pilvistä 610 m
2020/07/04 16:50 EFKU 041650Z AUTO 16009KT 9999 -RA OVC020 13/11 Q1002
EFHA - Halli (fin-Afb), Finland
Etäisyys Sääasemalta: ELo 113km
Päivitetty: 04/07/2020 16:50
Heikkoa sadetta, Kuurottaisia sateita, Ukkospilviä
Heikkoa sadetta, Kuurottaisia sateita, Ukkospilviä
 Tuulen suunta E
Tuuli: E 15 km/h
Lämpötila: 14°C
Kastepiste: 13°C
Ilmankosteus: 94%
Ilmanpaine: 1000 hPa
Yhteenveto: Heikkoa sadetta, Kuurottaisia sateita
Pilvisyys: Ukkospilviä
Näkyvyys: 10 km
Pilvisyystiedot: Joitain Pilviä 610 m
Puolipilvistä 1189 m
2020/07/04 16:50 EFHA 041650Z AUTO 17008KT 140V200 9999 -SHRA FEW020 SCT039 //////CB 14/13 Q1000
 
EFMI - Mikkeli, Finland
Etäisyys Sääasemalta: EKa 140km
Päivitetty: 04/07/2020 16:50
Pilvistä
Pilvistä
 Tuulen suunta EKa
Tuuli: EKa 11 km/h
Pilvisyys: Pilvistä
Näkyvyys: 10 km
Pilvisyystiedot: Pilvistä 274 m
2020/07/04 16:50 EFMI 041650Z AUTO 16006KT 100V210 9999 OVC009 ///// Q////
EFSI - Seinajoki-Ilmajo, Finland
Etäisyys Sääasemalta: L 150km
Päivitetty: 04/07/2020 16:50
Heikkoa sadetta, Kuurottaisia sateita, Enimmäkseen pilvistä
Heikkoa sadetta, Kuurottaisia sateita, Enimmäkseen pilvistä
 Tuulen suunta LLo
Tuuli: LLo 15 km/h
Lämpötila: 13°C
Kastepiste: 12°C
Ilmankosteus: 94%
Ilmanpaine: 998 hPa
Yhteenveto: Heikkoa sadetta, Kuurottaisia sateita
Pilvisyys: Enimmäkseen pilvistä
Näkyvyys: 10 km
Pilvisyystiedot: Joitain Pilviä 244 m
Puolipilvistä 488 m
Enimmäkseen pilvistä 732 m
Enimmäkseen pilvistä 1463 m
2020/07/04 16:50 EFSI 041650Z AUTO 24008KT 150V320 9999 -SHRA FEW008 SCT016 BKN024 BKN048 13/12 Q0998
EFKK - Kruunupyy, Finland
Etäisyys Sääasemalta: Lu 170km
Päivitetty: 04/07/2020 16:50
Voimakasta sadetta, Kuurottaisia sateita, Ukkospilviä
Voimakasta sadetta, Kuurottaisia sateita, Ukkospilviä
 Tuulen suunta EKa
Tuuli: EKa 11 km/h
Lämpötila: 12°C
Kastepiste: 12°C
Ilmankosteus: 100%
Ilmanpaine: 997 hPa
Yhteenveto: Voimakasta sadetta, Kuurottaisia sateita
Pilvisyys: Ukkospilviä
Näkyvyys: 10 km
Pilvisyystiedot: Pilvistä 518 m
2020/07/04 16:50 EFKK 041650Z AUTO 16006KT 9999 +SHRA OVC017 //////CB 12/12 Q0997
 
EFSA - Savonlinna (aut), Finland
Etäisyys Sääasemalta: IKa 186km
Päivitetty: 04/07/2020 16:50
Pilvistä
Pilvistä
 Tuulen suunta E
Tuuli: E 22 km/h
Lämpötila: 14°C
Kastepiste: 12°C
Ilmankosteus: 88%
Ilmanpaine: 1004 hPa
Pilvisyys: Pilvistä
Näkyvyys: 10 km
Pilvisyystiedot: Pilvistä 518 m
2020/07/04 16:50 EFSA 041650Z AUTO 17012KT 9999 OVC017 14/12 Q1004
EFTP - Tampere/Pirkkala, Finland
Etäisyys Sääasemalta: Lo 187km
Päivitetty: 04/07/2020 16:50
Rain showers, Ukkospilviä
Rain showers, Ukkospilviä
 Tuulen suunta E
Tuuli: E 13 km/h
Lämpötila: 14°C
Kastepiste: 13°C
Ilmankosteus: 94%
Ilmanpaine: 1001 hPa
Yhteenveto: Rain Showers
Pilvisyys: Ukkospilviä
Näkyvyys: 10 km
Pilvisyystiedot: Enimmäkseen pilvistä 518 m
2020/07/04 16:50 EFTP 041650Z AUTO 19007KT 9999 SHRA BKN017 //////CB 14/13 Q1001
EFKI - Kajaani, Finland
Etäisyys Sääasemalta: PKo 192km
Päivitetty: 04/07/2020 16:50
Heikkoa sadetta, Puolipilvistä
Heikkoa sadetta, Puolipilvistä
 Tuulen suunta E
Tuuli: E 17 km/h
Lämpötila: 13°C
Kastepiste: 9°C
Ilmankosteus: 77%
Ilmanpaine: 1001 hPa
Yhteenveto: Light Rain
Pilvisyys: Puolipilvistä
Näkyvyys: 10 km
2020/07/04 16:50 EFKI 041650Z AUTO 19009KT 130V220 9999 -RA NSC 13/09 Q1001
 
EFJO - Joensuu, Finland
Etäisyys Sääasemalta: I 196km
Päivitetty: 04/07/2020 16:50

 
2020/07/04 16:50 EFJO 041650Z AUT 18008KT 150V210 9999 -SHRA OVC044 13/11 Q100 RESHRA